sensor_id;sensor_type;location;lat;lon;timestamp;P1;durP1;ratioP1;P2;durP2;ratioP2
32228;SDS011;18717;48.034;11.186;2023-05-10T00:01:43;10.00;;;9.50;;
32228;SDS011;18717;48.034;11.186;2023-05-10T00:04:10;10.02;;;9.52;;
32228;SDS011;18717;48.034;11.186;2023-05-10T00:06:38;10.27;;;9.77;;
32228;SDS011;18717;48.034;11.186;2023-05-10T00:09:06;9.40;;;9.00;;
32228;SDS011;18717;48.034;11.186;2023-05-10T00:11:34;10.00;;;9.50;;
32228;SDS011;18717;48.034;11.186;2023-05-10T00:14:03;9.98;;;9.45;;
32228;SDS011;18717;48.034;11.186;2023-05-10T00:16:30;9.30;;;8.90;;
32228;SDS011;18717;48.034;11.186;2023-05-10T00:18:58;9.88;;;9.15;;
32228;SDS011;18717;48.034;11.186;2023-05-10T00:21:26;9.77;;;9.38;;
32228;SDS011;18717;48.034;11.186;2023-05-10T00:23:54;10.05;;;9.55;;
32228;SDS011;18717;48.034;11.186;2023-05-10T00:26:22;10.20;;;9.68;;
32228;SDS011;18717;48.034;11.186;2023-05-10T00:28:49;9.63;;;9.23;;
32228;SDS011;18717;48.034;11.186;2023-05-10T00:31:18;9.10;;;8.68;;
32228;SDS011;18717;48.034;11.186;2023-05-10T00:33:46;9.55;;;9.15;;
32228;SDS011;18717;48.034;11.186;2023-05-10T00:36:14;10.15;;;9.40;;
32228;SDS011;18717;48.034;11.186;2023-05-10T00:38:41;9.50;;;9.10;;
32228;SDS011;18717;48.034;11.186;2023-05-10T00:41:09;10.35;;;9.40;;
32228;SDS011;18717;48.034;11.186;2023-05-10T00:43:36;9.45;;;8.68;;
32228;SDS011;18717;48.034;11.186;2023-05-10T00:46:04;9.43;;;9.02;;
32228;SDS011;18717;48.034;11.186;2023-05-10T00:48:33;9.55;;;9.15;;
32228;SDS011;18717;48.034;11.186;2023-05-10T00:51:01;10.00;;;9.48;;
32228;SDS011;18717;48.034;11.186;2023-05-10T00:53:30;9.48;;;8.98;;
32228;SDS011;18717;48.034;11.186;2023-05-10T00:55:58;10.23;;;9.65;;
32228;SDS011;18717;48.034;11.186;2023-05-10T00:58:26;9.45;;;9.05;;
32228;SDS011;18717;48.034;11.186;2023-05-10T01:00:55;9.52;;;9.13;;
32228;SDS011;18717;48.034;11.186;2023-05-10T01:03:23;9.88;;;9.43;;
32228;SDS011;18717;48.034;11.186;2023-05-10T01:05:52;9.55;;;9.15;;
32228;SDS011;18717;48.034;11.186;2023-05-10T01:08:20;10.18;;;9.77;;
32228;SDS011;18717;48.034;11.186;2023-05-10T01:10:47;9.40;;;9.00;;
32228;SDS011;18717;48.034;11.186;2023-05-10T01:13:17;9.68;;;9.27;;
32228;SDS011;18717;48.034;11.186;2023-05-10T01:15:59;9.57;;;9.13;;
32228;SDS011;18717;48.034;11.186;2023-05-10T01:18:29;9.57;;;9.07;;
32228;SDS011;18717;48.034;11.186;2023-05-10T01:21:00;9.65;;;9.05;;
32228;SDS011;18717;48.034;11.186;2023-05-10T01:23:45;9.43;;;9.02;;
32228;SDS011;18717;48.034;11.186;2023-05-10T01:26:36;9.75;;;9.35;;
32228;SDS011;18717;48.034;11.186;2023-05-10T01:29:28;9.07;;;8.73;;
32228;SDS011;18717;48.034;11.186;2023-05-10T01:32:17;9.48;;;8.90;;
32228;SDS011;18717;48.034;11.186;2023-05-10T01:34:52;9.18;;;8.77;;
32228;SDS011;18717;48.034;11.186;2023-05-10T01:37:25;9.70;;;9.30;;
32228;SDS011;18717;48.034;11.186;2023-05-10T01:39:58;9.57;;;9.18;;
32228;SDS011;18717;48.034;11.186;2023-05-10T01:42:29;9.48;;;9.05;;
32228;SDS011;18717;48.034;11.186;2023-05-10T01:45:02;9.63;;;9.07;;
32228;SDS011;18717;48.034;11.186;2023-05-10T01:47:38;9.57;;;9.18;;
32228;SDS011;18717;48.034;11.186;2023-05-10T01:50:09;9.40;;;9.00;;
32228;SDS011;18717;48.034;11.186;2023-05-10T01:52:41;9.65;;;9.35;;
32228;SDS011;18717;48.034;11.186;2023-05-10T01:55:11;9.82;;;9.43;;
32228;SDS011;18717;48.034;11.186;2023-05-10T01:57:42;9.70;;;9.10;;
32228;SDS011;18717;48.034;11.186;2023-05-10T02:00:11;9.43;;;9.07;;
32228;SDS011;18717;48.034;11.186;2023-05-10T02:02:44;9.57;;;8.93;;
32228;SDS011;18717;48.034;11.186;2023-05-10T02:05:13;9.18;;;8.70;;
32228;SDS011;18717;48.034;11.186;2023-05-10T02:07:42;9.40;;;9.00;;
32228;SDS011;18717;48.034;11.186;2023-05-10T02:10:11;9.63;;;9.23;;
32228;SDS011;18717;48.034;11.186;2023-05-10T02:12:41;9.63;;;8.98;;
32228;SDS011;18717;48.034;11.186;2023-05-10T02:15:10;9.68;;;9.27;;
32228;SDS011;18717;48.034;11.186;2023-05-10T02:17:39;9.00;;;8.50;;
32228;SDS011;18717;48.034;11.186;2023-05-10T02:20:09;9.23;;;8.88;;
32228;SDS011;18717;48.034;11.186;2023-05-10T02:22:37;9.32;;;8.85;;
32228;SDS011;18717;48.034;11.186;2023-05-10T02:25:07;9.43;;;8.80;;
32228;SDS011;18717;48.034;11.186;2023-05-10T02:27:36;9.32;;;8.93;;
32228;SDS011;18717;48.034;11.186;2023-05-10T02:30:04;9.20;;;8.65;;
32228;SDS011;18717;48.034;11.186;2023-05-10T02:32:33;8.93;;;8.43;;
32228;SDS011;18717;48.034;11.186;2023-05-10T02:35:02;9.07;;;8.63;;
32228;SDS011;18717;48.034;11.186;2023-05-10T02:37:31;9.00;;;8.48;;
32228;SDS011;18717;48.034;11.186;2023-05-10T02:40:00;9.18;;;8.82;;
32228;SDS011;18717;48.034;11.186;2023-05-10T02:42:31;9.20;;;8.80;;
32228;SDS011;18717;48.034;11.186;2023-05-10T02:45:01;9.00;;;8.60;;
32228;SDS011;18717;48.034;11.186;2023-05-10T02:47:29;9.35;;;8.60;;
32228;SDS011;18717;48.034;11.186;2023-05-10T02:49:57;9.25;;;8.85;;
32228;SDS011;18717;48.034;11.186;2023-05-10T02:52:26;9.70;;;9.02;;
32228;SDS011;18717;48.034;11.186;2023-05-10T02:54:58;9.20;;;8.80;;
32228;SDS011;18717;48.034;11.186;2023-05-10T02:57:28;9.10;;;8.80;;
32228;SDS011;18717;48.034;11.186;2023-05-10T03:00:00;9.07;;;8.68;;
32228;SDS011;18717;48.034;11.186;2023-05-10T03:02:28;8.85;;;8.55;;
32228;SDS011;18717;48.034;11.186;2023-05-10T03:04:57;9.02;;;8.65;;
32228;SDS011;18717;48.034;11.186;2023-05-10T03:07:25;9.18;;;8.60;;
32228;SDS011;18717;48.034;11.186;2023-05-10T03:09:52;8.80;;;8.50;;
32228;SDS011;18717;48.034;11.186;2023-05-10T03:12:23;9.30;;;8.90;;
32228;SDS011;18717;48.034;11.186;2023-05-10T03:15:00;8.90;;;8.60;;
32228;SDS011;18717;48.034;11.186;2023-05-10T03:17:33;9.60;;;9.20;;
32228;SDS011;18717;48.034;11.186;2023-05-10T03:20:08;8.90;;;8.25;;
32228;SDS011;18717;48.034;11.186;2023-05-10T03:22:39;9.38;;;9.07;;
32228;SDS011;18717;48.034;11.186;2023-05-10T03:25:08;9.38;;;8.98;;
32228;SDS011;18717;48.034;11.186;2023-05-10T03:27:40;10.40;;;9.68;;
32228;SDS011;18717;48.034;11.186;2023-05-10T03:30:09;8.93;;;8.45;;
32228;SDS011;18717;48.034;11.186;2023-05-10T03:32:38;9.18;;;8.88;;
32228;SDS011;18717;48.034;11.186;2023-05-10T03:35:06;9.98;;;9.57;;
32228;SDS011;18717;48.034;11.186;2023-05-10T03:37:34;8.93;;;8.63;;
32228;SDS011;18717;48.034;11.186;2023-05-10T03:40:02;9.18;;;8.80;;
32228;SDS011;18717;48.034;11.186;2023-05-10T03:42:31;8.63;;;8.32;;
32228;SDS011;18717;48.034;11.186;2023-05-10T03:45:00;9.32;;;8.68;;
32228;SDS011;18717;48.034;11.186;2023-05-10T03:47:27;9.90;;;9.30;;
32228;SDS011;18717;48.034;11.186;2023-05-10T03:49:56;9.02;;;8.73;;
32228;SDS011;18717;48.034;11.186;2023-05-10T03:52:23;9.50;;;9.10;;
32228;SDS011;18717;48.034;11.186;2023-05-10T03:54:51;9.43;;;9.00;;
32228;SDS011;18717;48.034;11.186;2023-05-10T03:57:19;9.65;;;9.25;;
32228;SDS011;18717;48.034;11.186;2023-05-10T03:59:46;8.60;;;8.30;;
32228;SDS011;18717;48.034;11.186;2023-05-10T04:02:15;9.40;;;9.00;;
32228;SDS011;18717;48.034;11.186;2023-05-10T04:04:43;9.63;;;9.23;;
32228;SDS011;18717;48.034;11.186;2023-05-10T04:07:11;8.90;;;8.60;;
32228;SDS011;18717;48.034;11.186;2023-05-10T04:09:38;9.05;;;8.65;;
32228;SDS011;18717;48.034;11.186;2023-05-10T04:12:06;8.80;;;8.50;;
32228;SDS011;18717;48.034;11.186;2023-05-10T04:14:36;9.10;;;8.70;;
32228;SDS011;18717;48.034;11.186;2023-05-10T04:17:04;9.45;;;8.95;;
32228;SDS011;18717;48.034;11.186;2023-05-10T04:19:33;9.32;;;8.93;;
32228;SDS011;18717;48.034;11.186;2023-05-10T04:22:01;9.98;;;9.23;;
32228;SDS011;18717;48.034;11.186;2023-05-10T04:24:29;9.50;;;9.00;;
32228;SDS011;18717;48.034;11.186;2023-05-10T04:26:57;9.07;;;8.77;;
32228;SDS011;18717;48.034;11.186;2023-05-10T04:29:24;9.25;;;8.73;;
32228;SDS011;18717;48.034;11.186;2023-05-10T04:31:52;10.15;;;9.35;;
32228;SDS011;18717;48.034;11.186;2023-05-10T04:34:20;9.27;;;8.95;;
32228;SDS011;18717;48.034;11.186;2023-05-10T04:36:49;9.38;;;8.88;;
32228;SDS011;18717;48.034;11.186;2023-05-10T04:39:17;8.70;;;8.40;;
32228;SDS011;18717;48.034;11.186;2023-05-10T04:41:44;9.52;;;8.93;;
32228;SDS011;18717;48.034;11.186;2023-05-10T04:44:12;9.05;;;8.75;;
32228;SDS011;18717;48.034;11.186;2023-05-10T04:46:39;8.48;;;8.18;;
32228;SDS011;18717;48.034;11.186;2023-05-10T04:49:07;8.73;;;8.40;;
32228;SDS011;18717;48.034;11.186;2023-05-10T04:51:35;8.80;;;8.50;;
32228;SDS011;18717;48.034;11.186;2023-05-10T04:54:04;8.88;;;8.57;;
32228;SDS011;18717;48.034;11.186;2023-05-10T04:56:32;9.73;;;8.90;;
32228;SDS011;18717;48.034;11.186;2023-05-10T04:59:00;9.68;;;9.27;;
32228;SDS011;18717;48.034;11.186;2023-05-10T05:01:27;9.25;;;8.85;;
32228;SDS011;18717;48.034;11.186;2023-05-10T05:03:55;9.32;;;8.75;;
32228;SDS011;18717;48.034;11.186;2023-05-10T05:06:23;9.15;;;8.75;;
32228;SDS011;18717;48.034;11.186;2023-05-10T05:08:53;9.20;;;8.60;;
32228;SDS011;18717;48.034;11.186;2023-05-10T05:11:22;8.77;;;8.38;;
32228;SDS011;18717;48.034;11.186;2023-05-10T05:13:49;8.55;;;8.25;;
32228;SDS011;18717;48.034;11.186;2023-05-10T05:16:17;8.52;;;8.05;;
32228;SDS011;18717;48.034;11.186;2023-05-10T05:18:45;9.23;;;8.57;;
32228;SDS011;18717;48.034;11.186;2023-05-10T05:21:13;8.98;;;8.57;;
32228;SDS011;18717;48.034;11.186;2023-05-10T05:23:41;9.05;;;8.50;;
32228;SDS011;18717;48.034;11.186;2023-05-10T05:26:09;8.75;;;8.30;;
32228;SDS011;18717;48.034;11.186;2023-05-10T05:28:38;9.73;;;9.32;;
32228;SDS011;18717;48.034;11.186;2023-05-10T05:31:06;8.77;;;8.48;;
32228;SDS011;18717;48.034;11.186;2023-05-10T05:33:35;9.15;;;8.82;;
32228;SDS011;18717;48.034;11.186;2023-05-10T05:36:03;9.30;;;8.90;;
32228;SDS011;18717;48.034;11.186;2023-05-10T05:38:31;9.05;;;8.55;;
32228;SDS011;18717;48.034;11.186;2023-05-10T05:40:59;8.98;;;8.68;;
32228;SDS011;18717;48.034;11.186;2023-05-10T05:43:27;9.02;;;8.63;;
32228;SDS011;18717;48.034;11.186;2023-05-10T05:45:56;10.48;;;8.80;;
32228;SDS011;18717;48.034;11.186;2023-05-10T05:48:24;9.10;;;8.70;;
32228;SDS011;18717;48.034;11.186;2023-05-10T05:50:53;9.10;;;8.70;;
32228;SDS011;18717;48.034;11.186;2023-05-10T05:53:22;9.38;;;8.63;;
32228;SDS011;18717;48.034;11.186;2023-05-10T05:55:52;9.07;;;8.65;;
32228;SDS011;18717;48.034;11.186;2023-05-10T05:58:21;9.07;;;8.68;;
32228;SDS011;18717;48.034;11.186;2023-05-10T06:00:48;9.20;;;8.80;;
32228;SDS011;18717;48.034;11.186;2023-05-10T06:03:18;8.88;;;8.48;;
32228;SDS011;18717;48.034;11.186;2023-05-10T06:05:46;9.20;;;8.80;;
32228;SDS011;18717;48.034;11.186;2023-05-10T06:08:13;9.23;;;8.80;;
32228;SDS011;18717;48.034;11.186;2023-05-10T06:10:41;9.02;;;8.63;;
32228;SDS011;18717;48.034;11.186;2023-05-10T06:13:09;9.05;;;8.65;;
32228;SDS011;18717;48.034;11.186;2023-05-10T06:15:37;9.05;;;8.60;;
32228;SDS011;18717;48.034;11.186;2023-05-10T06:18:05;9.10;;;8.60;;
32228;SDS011;18717;48.034;11.186;2023-05-10T06:20:34;9.50;;;9.00;;
32228;SDS011;18717;48.034;11.186;2023-05-10T06:23:01;9.05;;;8.65;;
32228;SDS011;18717;48.034;11.186;2023-05-10T06:25:29;9.93;;;9.25;;
32228;SDS011;18717;48.034;11.186;2023-05-10T06:27:57;9.65;;;9.25;;
32228;SDS011;18717;48.034;11.186;2023-05-10T06:30:24;9.93;;;9.40;;
32228;SDS011;18717;48.034;11.186;2023-05-10T06:32:54;9.35;;;8.82;;
32228;SDS011;18717;48.034;11.186;2023-05-10T06:35:22;9.80;;;9.30;;
32228;SDS011;18717;48.034;11.186;2023-05-10T06:37:51;9.63;;;9.23;;
32228;SDS011;18717;48.034;11.186;2023-05-10T06:40:19;9.32;;;8.70;;
32228;SDS011;18717;48.034;11.186;2023-05-10T06:42:47;9.30;;;8.70;;
32228;SDS011;18717;48.034;11.186;2023-05-10T06:45:15;9.05;;;8.65;;
32228;SDS011;18717;48.034;11.186;2023-05-10T06:47:43;9.90;;;9.30;;
32228;SDS011;18717;48.034;11.186;2023-05-10T06:50:12;9.25;;;8.80;;
32228;SDS011;18717;48.034;11.186;2023-05-10T06:52:39;9.60;;;9.10;;
32228;SDS011;18717;48.034;11.186;2023-05-10T06:55:08;11.25;;;9.73;;
32228;SDS011;18717;48.034;11.186;2023-05-10T06:57:37;9.65;;;9.25;;
32228;SDS011;18717;48.034;11.186;2023-05-10T07:00:05;9.30;;;8.80;;
32228;SDS011;18717;48.034;11.186;2023-05-10T07:02:35;9.30;;;8.88;;
32228;SDS011;18717;48.034;11.186;2023-05-10T07:05:03;9.52;;;9.10;;
32228;SDS011;18717;48.034;11.186;2023-05-10T07:07:31;10.13;;;9.35;;
32228;SDS011;18717;48.034;11.186;2023-05-10T07:09:59;9.77;;;9.38;;
32228;SDS011;18717;48.034;11.186;2023-05-10T07:12:28;9.45;;;9.02;;
32228;SDS011;18717;48.034;11.186;2023-05-10T07:14:56;9.85;;;9.35;;
32228;SDS011;18717;48.034;11.186;2023-05-10T07:17:24;9.57;;;9.18;;
32228;SDS011;18717;48.034;11.186;2023-05-10T07:19:51;10.48;;;9.38;;
32228;SDS011;18717;48.034;11.186;2023-05-10T07:22:19;9.35;;;8.95;;
32228;SDS011;18717;48.034;11.186;2023-05-10T07:24:47;9.75;;;9.15;;
32228;SDS011;18717;48.034;11.186;2023-05-10T07:27:14;9.68;;;9.27;;
32228;SDS011;18717;48.034;11.186;2023-05-10T07:29:43;9.93;;;9.43;;
32228;SDS011;18717;48.034;11.186;2023-05-10T07:32:11;9.70;;;9.30;;
32228;SDS011;18717;48.034;11.186;2023-05-10T07:34:38;9.93;;;9.35;;
32228;SDS011;18717;48.034;11.186;2023-05-10T07:37:06;9.80;;;9.30;;
32228;SDS011;18717;48.034;11.186;2023-05-10T07:39:34;9.80;;;9.30;;
32228;SDS011;18717;48.034;11.186;2023-05-10T07:42:01;9.63;;;9.07;;
32228;SDS011;18717;48.034;11.186;2023-05-10T07:44:30;10.32;;;9.82;;
32228;SDS011;18717;48.034;11.186;2023-05-10T07:46:58;10.63;;;9.98;;
32228;SDS011;18717;48.034;11.186;2023-05-10T07:49:26;10.13;;;9.60;;
32228;SDS011;18717;48.034;11.186;2023-05-10T07:51:54;9.50;;;9.10;;
32228;SDS011;18717;48.034;11.186;2023-05-10T07:54:22;9.77;;;9.38;;
32228;SDS011;18717;48.034;11.186;2023-05-10T07:56:50;9.80;;;9.40;;
32228;SDS011;18717;48.034;11.186;2023-05-10T07:59:18;10.50;;;9.63;;
32228;SDS011;18717;48.034;11.186;2023-05-10T08:01:46;9.70;;;9.25;;
32228;SDS011;18717;48.034;11.186;2023-05-10T08:04:15;10.05;;;9.65;;
32228;SDS011;18717;48.034;11.186;2023-05-10T08:06:42;10.00;;;9.50;;
32228;SDS011;18717;48.034;11.186;2023-05-10T08:09:10;10.50;;;9.90;;
32228;SDS011;18717;48.034;11.186;2023-05-10T08:11:38;9.95;;;9.45;;
32228;SDS011;18717;48.034;11.186;2023-05-10T08:14:05;10.32;;;9.82;;
32228;SDS011;18717;48.034;11.186;2023-05-10T08:16:33;9.63;;;9.20;;
32228;SDS011;18717;48.034;11.186;2023-05-10T08:19:01;10.85;;;10.18;;
32228;SDS011;18717;48.034;11.186;2023-05-10T08:21:30;9.85;;;9.30;;
32228;SDS011;18717;48.034;11.186;2023-05-10T08:23:58;10.50;;;9.77;;
32228;SDS011;18717;48.034;11.186;2023-05-10T08:26:26;10.70;;;10.20;;
32228;SDS011;18717;48.034;11.186;2023-05-10T08:28:53;11.38;;;10.77;;
32228;SDS011;18717;48.034;11.186;2023-05-10T08:31:21;11.50;;;10.50;;
32228;SDS011;18717;48.034;11.186;2023-05-10T08:33:48;10.10;;;9.60;;
32228;SDS011;18717;48.034;11.186;2023-05-10T08:36:17;10.48;;;9.98;;
32228;SDS011;18717;48.034;11.186;2023-05-10T08:38:49;11.73;;;10.57;;
32228;SDS011;18717;48.034;11.186;2023-05-10T08:41:18;11.02;;;10.48;;
32228;SDS011;18717;48.034;11.186;2023-05-10T08:43:47;11.13;;;10.43;;
32228;SDS011;18717;48.034;11.186;2023-05-10T08:46:15;10.15;;;9.65;;
32228;SDS011;18717;48.034;11.186;2023-05-10T08:48:44;10.75;;;10.20;;
32228;SDS011;18717;48.034;11.186;2023-05-10T08:51:14;10.45;;;9.95;;
32228;SDS011;18717;48.034;11.186;2023-05-10T08:53:44;10.68;;;10.10;;
32228;SDS011;18717;48.034;11.186;2023-05-10T08:56:14;10.68;;;10.18;;
32228;SDS011;18717;48.034;11.186;2023-05-10T08:58:44;11.20;;;10.18;;
32228;SDS011;18717;48.034;11.186;2023-05-10T09:01:11;10.50;;;9.93;;
32228;SDS011;18717;48.034;11.186;2023-05-10T09:03:40;10.00;;;9.60;;
32228;SDS011;18717;48.034;11.186;2023-05-10T09:06:08;10.45;;;10.00;;
32228;SDS011;18717;48.034;11.186;2023-05-10T09:08:35;10.00;;;9.50;;
32228;SDS011;18717;48.034;11.186;2023-05-10T09:11:03;10.70;;;10.25;;
32228;SDS011;18717;48.034;11.186;2023-05-10T09:13:33;10.20;;;9.77;;
32228;SDS011;18717;48.034;11.186;2023-05-10T09:16:03;11.05;;;10.25;;
32228;SDS011;18717;48.034;11.186;2023-05-10T09:18:46;11.35;;;10.52;;
32228;SDS011;18717;48.034;11.186;2023-05-10T09:21:15;10.50;;;9.77;;
32228;SDS011;18717;48.034;11.186;2023-05-10T09:23:43;10.80;;;10.15;;
32228;SDS011;18717;48.034;11.186;2023-05-10T09:26:13;10.48;;;9.95;;
32228;SDS011;18717;48.034;11.186;2023-05-10T09:28:52;10.88;;;9.90;;
32228;SDS011;18717;48.034;11.186;2023-05-10T09:31:20;10.90;;;10.40;;
32228;SDS011;18717;48.034;11.186;2023-05-10T09:33:49;10.02;;;9.52;;
32228;SDS011;18717;48.034;11.186;2023-05-10T09:36:17;10.20;;;9.80;;
32228;SDS011;18717;48.034;11.186;2023-05-10T09:38:45;10.70;;;9.88;;
32228;SDS011;18717;48.034;11.186;2023-05-10T09:41:17;10.57;;;9.85;;
32228;SDS011;18717;48.034;11.186;2023-05-10T09:43:46;11.13;;;10.32;;
32228;SDS011;18717;48.034;11.186;2023-05-10T09:46:15;10.57;;;9.98;;
32228;SDS011;18717;48.034;11.186;2023-05-10T09:48:44;11.30;;;10.70;;
32228;SDS011;18717;48.034;11.186;2023-05-10T09:51:18;10.85;;;10.35;;
32228;SDS011;18717;48.034;11.186;2023-05-10T09:53:46;10.25;;;9.65;;
32228;SDS011;18717;48.034;11.186;2023-05-10T09:59:03;12.05;;;11.30;;
32228;SDS011;18717;48.034;11.186;2023-05-10T10:01:32;10.73;;;10.10;;
32228;SDS011;18717;48.034;11.186;2023-05-10T10:04:02;10.40;;;9.90;;
32228;SDS011;18717;48.034;11.186;2023-05-10T10:06:34;10.27;;;9.73;;
32228;SDS011;18717;48.034;11.186;2023-05-10T10:09:03;11.10;;;10.57;;
32228;SDS011;18717;48.034;11.186;2023-05-10T10:11:31;10.73;;;10.18;;
32228;SDS011;18717;48.034;11.186;2023-05-10T10:13:58;10.50;;;10.00;;
32228;SDS011;18717;48.034;11.186;2023-05-10T10:16:26;10.35;;;9.70;;
32228;SDS011;18717;48.034;11.186;2023-05-10T10:18:56;11.57;;;11.07;;
32228;SDS011;18717;48.034;11.186;2023-05-10T10:21:23;11.20;;;10.63;;
32228;SDS011;18717;48.034;11.186;2023-05-10T10:23:51;10.90;;;10.25;;
32228;SDS011;18717;48.034;11.186;2023-05-10T10:26:19;10.43;;;9.98;;
32228;SDS011;18717;48.034;11.186;2023-05-10T10:28:49;10.50;;;10.00;;
32228;SDS011;18717;48.034;11.186;2023-05-10T10:31:23;10.07;;;9.67;;
32228;SDS011;18717;48.034;11.186;2023-05-10T10:34:03;9.85;;;9.45;;
32228;SDS011;18717;48.034;11.186;2023-05-10T10:36:39;12.45;;;10.25;;
32228;SDS011;18717;48.034;11.186;2023-05-10T10:39:10;10.13;;;9.50;;
32228;SDS011;18717;48.034;11.186;2023-05-10T10:41:39;10.77;;;10.25;;
32228;SDS011;18717;48.034;11.186;2023-05-10T10:44:22;10.32;;;9.82;;
32228;SDS011;18717;48.034;11.186;2023-05-10T10:47:00;9.80;;;9.10;;
32228;SDS011;18717;48.034;11.186;2023-05-10T10:49:33;10.43;;;9.77;;
32228;SDS011;18717;48.034;11.186;2023-05-10T10:52:24;10.10;;;9.70;;
32228;SDS011;18717;48.034;11.186;2023-05-10T10:54:58;10.38;;;9.63;;
32228;SDS011;18717;48.034;11.186;2023-05-10T10:57:27;9.80;;;9.20;;
32228;SDS011;18717;48.034;11.186;2023-05-10T11:03:04;10.20;;;9.60;;
32228;SDS011;18717;48.034;11.186;2023-05-10T11:05:39;10.10;;;9.60;;
32228;SDS011;18717;48.034;11.186;2023-05-10T11:08:09;9.57;;;9.18;;
32228;SDS011;18717;48.034;11.186;2023-05-10T11:10:38;10.02;;;9.50;;
32228;SDS011;18717;48.034;11.186;2023-05-10T11:13:06;10.30;;;9.70;;
32228;SDS011;18717;48.034;11.186;2023-05-10T11:15:35;10.25;;;9.65;;
32228;SDS011;18717;48.034;11.186;2023-05-10T11:20:51;9.85;;;9.23;;
32228;SDS011;18717;48.034;11.186;2023-05-10T11:23:19;9.90;;;9.50;;
32228;SDS011;18717;48.034;11.186;2023-05-10T11:25:47;10.10;;;9.68;;
32228;SDS011;18717;48.034;11.186;2023-05-10T11:28:16;10.23;;;9.73;;
32228;SDS011;18717;48.034;11.186;2023-05-10T11:30:44;10.32;;;9.73;;
32228;SDS011;18717;48.034;11.186;2023-05-10T11:33:15;9.98;;;9.55;;
32228;SDS011;18717;48.034;11.186;2023-05-10T11:35:44;10.70;;;9.90;;
32228;SDS011;18717;48.034;11.186;2023-05-10T11:38:13;10.43;;;9.88;;
32228;SDS011;18717;48.034;11.186;2023-05-10T11:40:41;9.90;;;9.40;;
32228;SDS011;18717;48.034;11.186;2023-05-10T11:43:09;10.68;;;10.18;;
32228;SDS011;18717;48.034;11.186;2023-05-10T11:45:37;10.25;;;9.75;;
32228;SDS011;18717;48.034;11.186;2023-05-10T11:48:05;10.15;;;9.70;;
32228;SDS011;18717;48.034;11.186;2023-05-10T11:50:33;10.75;;;10.10;;
32228;SDS011;18717;48.034;11.186;2023-05-10T11:53:01;9.68;;;9.20;;
32228;SDS011;18717;48.034;11.186;2023-05-10T11:55:30;10.30;;;9.75;;
32228;SDS011;18717;48.034;11.186;2023-05-10T12:00:28;10.90;;;10.32;;
32228;SDS011;18717;48.034;11.186;2023-05-10T12:02:57;10.73;;;9.98;;
32228;SDS011;18717;48.034;11.186;2023-05-10T12:05:24;9.40;;;9.00;;
32228;SDS011;18717;48.034;11.186;2023-05-10T12:07:52;10.27;;;9.68;;
32228;SDS011;18717;48.034;11.186;2023-05-10T12:10:24;9.63;;;9.23;;
32228;SDS011;18717;48.034;11.186;2023-05-10T12:12:54;19.90;;;10.15;;
32228;SDS011;18717;48.034;11.186;2023-05-10T12:15:23;10.40;;;9.70;;
32228;SDS011;18717;48.034;11.186;2023-05-10T12:17:51;10.30;;;9.68;;
32228;SDS011;18717;48.034;11.186;2023-05-10T12:20:19;10.23;;;9.73;;
32228;SDS011;18717;48.034;11.186;2023-05-10T12:22:49;11.48;;;10.65;;
32228;SDS011;18717;48.034;11.186;2023-05-10T12:25:19;11.77;;;10.77;;
32228;SDS011;18717;48.034;11.186;2023-05-10T12:27:48;10.65;;;9.93;;
32228;SDS011;18717;48.034;11.186;2023-05-10T12:30:23;12.30;;;11.15;;
32228;SDS011;18717;48.034;11.186;2023-05-10T12:32:52;12.10;;;11.07;;
32228;SDS011;18717;48.034;11.186;2023-05-10T12:35:20;10.73;;;9.70;;
32228;SDS011;18717;48.034;11.186;2023-05-10T12:37:50;13.07;;;11.93;;
32228;SDS011;18717;48.034;11.186;2023-05-10T12:40:18;13.25;;;12.23;;
32228;SDS011;18717;48.034;11.186;2023-05-10T12:42:46;10.30;;;9.60;;
32228;SDS011;18717;48.034;11.186;2023-05-10T12:45:14;13.18;;;9.98;;
32228;SDS011;18717;48.034;11.186;2023-05-10T12:47:43;10.88;;;10.02;;
32228;SDS011;18717;48.034;11.186;2023-05-10T12:50:11;10.23;;;9.63;;
32228;SDS011;18717;48.034;11.186;2023-05-10T12:52:39;10.48;;;9.70;;
32228;SDS011;18717;48.034;11.186;2023-05-10T12:55:07;10.73;;;10.00;;
32228;SDS011;18717;48.034;11.186;2023-05-10T12:57:35;10.93;;;10.25;;
32228;SDS011;18717;48.034;11.186;2023-05-10T13:00:03;10.27;;;9.60;;
32228;SDS011;18717;48.034;11.186;2023-05-10T13:02:32;10.15;;;9.63;;
32228;SDS011;18717;48.034;11.186;2023-05-10T13:05:01;10.07;;;9.55;;
32228;SDS011;18717;48.034;11.186;2023-05-10T13:07:29;10.65;;;10.15;;
32228;SDS011;18717;48.034;11.186;2023-05-10T13:09:56;10.75;;;10.23;;
32228;SDS011;18717;48.034;11.186;2023-05-10T13:12:24;10.35;;;9.68;;
32228;SDS011;18717;48.034;11.186;2023-05-10T13:14:51;9.73;;;9.32;;
32228;SDS011;18717;48.034;11.186;2023-05-10T13:17:19;9.60;;;9.20;;
32228;SDS011;18717;48.034;11.186;2023-05-10T13:19:47;10.52;;;9.70;;
32228;SDS011;18717;48.034;11.186;2023-05-10T13:22:16;9.90;;;9.30;;
32228;SDS011;18717;48.034;11.186;2023-05-10T13:24:57;9.95;;;9.32;;
32228;SDS011;18717;48.034;11.186;2023-05-10T13:27:25;10.73;;;10.07;;
32228;SDS011;18717;48.034;11.186;2023-05-10T13:29:53;10.02;;;9.52;;
32228;SDS011;18717;48.034;11.186;2023-05-10T13:32:21;10.43;;;9.93;;
32228;SDS011;18717;48.034;11.186;2023-05-10T13:34:48;9.93;;;9.43;;
32228;SDS011;18717;48.034;11.186;2023-05-10T13:37:17;9.60;;;9.20;;
32228;SDS011;18717;48.034;11.186;2023-05-10T13:39:45;9.20;;;8.80;;
32228;SDS011;18717;48.034;11.186;2023-05-10T13:42:13;10.05;;;9.48;;
32228;SDS011;18717;48.034;11.186;2023-05-10T13:44:40;9.70;;;8.98;;
32228;SDS011;18717;48.034;11.186;2023-05-10T13:47:09;9.25;;;8.75;;
32228;SDS011;18717;48.034;11.186;2023-05-10T13:49:37;10.18;;;9.65;;
32228;SDS011;18717;48.034;11.186;2023-05-10T13:52:05;9.20;;;8.80;;
32228;SDS011;18717;48.034;11.186;2023-05-10T13:54:34;9.88;;;9.35;;
32228;SDS011;18717;48.034;11.186;2023-05-10T13:57:03;10.48;;;9.88;;
32228;SDS011;18717;48.034;11.186;2023-05-10T13:59:31;10.20;;;9.35;;
32228;SDS011;18717;48.034;11.186;2023-05-10T14:01:58;9.98;;;9.48;;
32228;SDS011;18717;48.034;11.186;2023-05-10T14:04:28;13.85;;;9.20;;
32228;SDS011;18717;48.034;11.186;2023-05-10T14:06:56;10.40;;;9.60;;
32228;SDS011;18717;48.034;11.186;2023-05-10T14:09:24;9.90;;;9.40;;
32228;SDS011;18717;48.034;11.186;2023-05-10T14:11:53;9.40;;;8.70;;
32228;SDS011;18717;48.034;11.186;2023-05-10T14:14:22;9.85;;;9.00;;
32228;SDS011;18717;48.034;11.186;2023-05-10T14:16:49;9.20;;;8.73;;
32228;SDS011;18717;48.034;11.186;2023-05-10T14:19:17;9.93;;;9.25;;
32228;SDS011;18717;48.034;11.186;2023-05-10T14:21:45;8.93;;;8.63;;
32228;SDS011;18717;48.034;11.186;2023-05-10T14:24:13;9.30;;;8.80;;
32228;SDS011;18717;48.034;11.186;2023-05-10T14:26:40;9.25;;;8.65;;
32228;SDS011;18717;48.034;11.186;2023-05-10T14:29:09;9.60;;;8.95;;
32228;SDS011;18717;48.034;11.186;2023-05-10T14:31:37;10.27;;;9.57;;
32228;SDS011;18717;48.034;11.186;2023-05-10T14:34:05;10.65;;;9.70;;
32228;SDS011;18717;48.034;11.186;2023-05-10T14:36:33;10.30;;;9.30;;
32228;SDS011;18717;48.034;11.186;2023-05-10T14:39:00;10.10;;;9.52;;
32228;SDS011;18717;48.034;11.186;2023-05-10T14:41:29;9.45;;;8.90;;
32228;SDS011;18717;48.034;11.186;2023-05-10T14:43:57;9.02;;;8.60;;
32228;SDS011;18717;48.034;11.186;2023-05-10T14:46:26;9.80;;;8.95;;
32228;SDS011;18717;48.034;11.186;2023-05-10T14:48:54;9.38;;;8.98;;
32228;SDS011;18717;48.034;11.186;2023-05-10T14:51:21;9.13;;;8.63;;